Time;durP1;ratioP1;P1;durP2;ratioP2;P2;SDS_P1;SDS_P2;PMS_P1;PMS_P2;Temp;Humidity;BMP_temperature;BMP_pressure;BME280_temperature;BME280_humidity;BME280_pressure;Samples;Min_cycle;Max_cycle;Signal;HPM_P1;HPM_P2
2021/08/30 00:00:19;;;;;;;7.43;1.80;;;15.10;99.90;;;;;;5028813;28;20043;-82
2021/08/30 00:02:44;;;;;;;4.65;1.92;;;15.00;99.90;;;;;;5030131;28;20101;-82
2021/08/30 00:05:11;;;;;;;3.13;1.70;;;15.00;99.90;;;;;;5029604;28;20060;-78
2021/08/30 00:07:36;;;;;;;4.15;1.98;;;15.00;99.90;;;;;;5028663;28;20030;-79
2021/08/30 00:10:05;;;;;;;9.40;2.22;;;15.00;99.90;;;;;;5028964;28;20025;-81
2021/08/30 00:12:31;;;;;;;3.58;2.05;;;14.90;99.90;;;;;;5029926;28;20076;-81
2021/08/30 00:14:57;;;;;;;3.22;1.73;;;14.90;99.90;;;;;;5029642;28;20029;-81
2021/08/30 00:17:22;;;;;;;3.17;2.17;;;14.90;99.90;;;;;;5028144;28;20041;-81
2021/08/30 00:19:48;;;;;;;3.72;2.05;;;14.90;99.90;;;;;;5028926;28;20501;-81
2021/08/30 00:22:13;;;;;;;3.03;2.00;;;14.80;99.90;;;;;;5029217;28;20033;-79
2021/08/30 00:24:39;;;;;;;5.95;2.40;;;14.80;99.90;;;;;;5029858;28;20030;-78
2021/08/30 00:27:05;;;;;;;2.80;1.92;;;14.80;99.90;;;;;;5029149;28;20029;-78
2021/08/30 00:29:30;;;;;;;8.48;2.30;;;14.80;99.90;;;;;;5033132;28;20029;-79
2021/08/30 00:31:57;;;;;;;4.78;2.25;;;14.90;99.90;;;;;;5032260;28;20030;-78
2021/08/30 00:34:24;;;;;;;3.35;2.13;;;14.80;99.90;;;;;;5033211;28;20571;-82
2021/08/30 00:36:50;;;;;;;7.35;2.55;;;14.80;99.90;;;;;;5031834;28;20032;-78
2021/08/30 00:39:25;;;;;;;4.30;2.10;;;14.80;99.90;;;;;;5033358;28;20036;-82
2021/08/30 00:41:54;;;;;;;4.50;2.20;;;14.80;99.90;;;;;;5031760;28;20033;-82
2021/08/30 00:44:21;;;;;;;3.85;2.15;;;14.80;99.90;;;;;;5030683;28;20053;-78
2021/08/30 00:46:47;;;;;;;3.67;2.17;;;14.80;99.90;;;;;;5033143;28;20025;-82
2021/08/30 00:49:12;;;;;;;8.30;2.63;;;14.80;99.90;;;;;;5033431;28;20036;-81
2021/08/30 00:51:38;;;;;;;6.15;2.50;;;14.80;99.90;;;;;;5014648;28;20115;-81
2021/08/30 00:54:04;;;;;;;6.55;2.28;;;14.80;99.90;;;;;;5013354;28;20030;-79
2021/08/30 00:56:29;;;;;;;3.63;2.00;;;14.80;99.90;;;;;;5011399;28;20073;-79
2021/08/30 00:58:55;;;;;;;3.67;2.05;;;14.70;99.90;;;;;;5012434;28;20030;-78
2021/08/30 01:01:21;;;;;;;4.25;2.50;;;14.70;99.90;;;;;;5033109;28;20033;-81
2021/08/30 01:03:48;;;;;;;6.93;2.05;;;14.60;99.90;;;;;;5031283;28;20511;-81
2021/08/30 01:06:35;;;;;;;4.88;2.33;;;14.60;99.90;;;;;;5031298;28;20029;-81
2021/08/30 01:09:07;;;;;;;5.32;2.40;;;14.60;99.90;;;;;;5030241;28;20114;-79
2021/08/30 01:11:38;;;;;;;2.65;2.20;;;14.60;99.90;;;;;;5032569;28;20079;-78
2021/08/30 01:14:10;;;;;;;3.55;2.55;;;14.50;99.90;;;;;;5032441;28;20115;-78
2021/08/30 01:16:37;;;;;;;4.65;2.40;;;14.50;99.90;;;;;;5032676;28;20083;-78
2021/08/30 01:19:05;;;;;;;7.70;2.92;;;14.50;99.90;;;;;;5029714;28;20033;-79
2021/08/30 01:21:38;;;;;;;3.13;2.40;;;14.50;99.90;;;;;;5031933;28;20392;-80
2021/08/30 01:24:13;;;;;;;8.35;3.15;;;14.40;99.90;;;;;;5032080;28;20429;-78
2021/08/30 01:26:47;;;;;;;7.43;2.90;;;14.40;99.90;;;;;;5017398;28;20034;-78
2021/08/30 01:29:33;;;;;;;4.25;2.63;;;14.40;99.90;;;;;;5012529;28;20030;-78
2021/08/30 01:32:10;;;;;;;3.97;2.47;;;14.40;99.90;;;;;;5012640;28;20036;-81
2021/08/30 01:34:37;;;;;;;5.97;2.65;;;14.40;99.90;;;;;;5012503;28;20358;-81
2021/08/30 01:37:03;;;;;;;9.57;2.70;;;14.30;99.90;;;;;;5011587;28;20030;-78
2021/08/30 01:39:31;;;;;;;4.28;2.50;;;14.30;99.90;;;;;;5011979;28;20025;-78
2021/08/30 01:41:58;;;;;;;8.82;2.90;;;14.30;99.90;;;;;;5011044;28;20026;-79
2021/08/30 01:44:25;;;;;;;5.90;3.00;;;14.20;99.90;;;;;;5019032;28;20106;-81
2021/08/30 01:46:51;;;;;;;5.43;3.00;;;14.20;99.90;;;;;;5031919;28;20017;-81
2021/08/30 01:49:20;;;;;;;4.57;2.90;;;14.20;99.90;;;;;;5031762;28;20028;-78
2021/08/30 01:51:49;;;;;;;4.57;2.70;;;14.20;99.90;;;;;;5012454;28;20022;-78
2021/08/30 01:54:16;;;;;;;14.05;3.53;;;14.20;99.90;;;;;;5011987;28;20097;-78
2021/08/30 01:56:48;;;;;;;4.28;3.03;;;14.10;99.90;;;;;;5023900;28;20030;-78
2021/08/30 02:02:01;;;;;;;5.97;2.60;;;14.20;99.90;;;;;;5012021;28;20083;-78
2021/08/30 02:04:28;;;;;;;5.30;3.10;;;14.10;99.90;;;;;;5012157;28;20033;-78
2021/08/30 02:06:54;;;;;;;11.77;3.28;;;14.10;99.90;;;;;;5011696;28;20105;-81
2021/08/30 02:09:20;;;;;;;11.20;3.08;;;14.00;99.90;;;;;;5011149;28;20022;-81
2021/08/30 02:11:45;;;;;;;7.15;3.00;;;14.00;99.90;;;;;;5011888;28;20097;-81
2021/08/30 02:14:11;;;;;;;4.72;3.20;;;14.10;99.90;;;;;;5011717;28;20432;-81
2021/08/30 02:16:38;;;;;;;4.82;2.80;;;14.00;99.90;;;;;;5011532;28;20022;-78
2021/08/30 02:19:33;;;;;;;6.95;3.33;;;14.00;99.90;;;;;;5010518;28;20437;-78
2021/08/30 02:22:12;;;;;;;6.13;3.30;;;14.00;99.90;;;;;;5004383;28;20527;-78
2021/08/30 02:25:00;;;;;;;5.25;2.95;;;14.00;99.90;;;;;;5011448;28;20032;-78
2021/08/30 02:27:49;;;;;;;5.40;3.38;;;14.00;99.90;;;;;;5026527;28;20038;-79
2021/08/30 02:30:23;;;;;;;7.43;3.58;;;14.00;99.90;;;;;;5030771;28;20022;-78
2021/08/30 02:32:52;;;;;;;6.13;3.05;;;14.00;99.90;;;;;;5030770;28;20017;-78
2021/08/30 02:35:22;;;;;;;6.63;2.83;;;14.00;99.90;;;;;;5030998;28;20587;-80
2021/08/30 02:37:51;;;;;;;7.78;3.53;;;13.90;99.90;;;;;;5030148;28;20063;-81
2021/08/30 02:40:19;;;;;;;5.43;3.00;;;13.90;99.90;;;;;;5030466;28;20026;-79
2021/08/30 02:42:47;;;;;;;12.82;4.03;;;13.90;99.90;;;;;;5030886;28;20056;-81
2021/08/30 02:45:14;;;;;;;4.82;3.03;;;13.90;99.90;;;;;;5038181;28;20057;-78
2021/08/30 02:47:41;;;;;;;5.15;2.78;;;13.90;99.90;;;;;;5029406;28;20039;-78
2021/08/30 02:50:09;;;;;;;5.63;3.00;;;13.80;99.90;;;;;;5024443;28;20029;-78
2021/08/30 02:52:37;;;;;;;8.10;2.97;;;13.80;99.90;;;;;;5009343;28;20032;-79
2021/08/30 02:55:03;;;;;;;8.10;3.28;;;13.80;99.90;;;;;;5010173;28;20034;-81
2021/08/30 02:57:29;;;;;;;5.95;2.33;;;13.80;99.90;;;;;;5029668;28;20029;-78
2021/08/30 02:59:56;;;;;;;7.68;3.00;;;13.80;99.90;;;;;;5030655;28;20036;-78
2021/08/30 03:02:26;;;;;;;4.38;3.10;;;13.70;99.90;;;;;;5031083;28;20469;-81
2021/08/30 03:04:54;;;;;;;8.60;2.65;;;13.70;99.90;;;;;;5030884;28;20061;-80
2021/08/30 03:07:20;;;;;;;3.15;2.75;;;13.70;99.90;;;;;;5030453;28;20041;-81
2021/08/30 03:09:46;;;;;;;4.88;2.92;;;13.70;99.90;;;;;;5029366;28;20036;-78
2021/08/30 03:12:15;;;;;;;5.72;2.70;;;13.70;99.90;;;;;;5030675;28;20105;-78
2021/08/30 03:14:42;;;;;;;6.57;2.65;;;13.70;99.90;;;;;;5030494;28;20380;-78
2021/08/30 03:17:10;;;;;;;3.50;2.72;;;13.70;99.90;;;;;;5030170;28;20018;-81
2021/08/30 03:19:40;;;;;;;7.68;2.80;;;13.70;99.90;;;;;;5028766;28;20029;-81
2021/08/30 03:22:06;;;;;;;8.02;3.28;;;13.60;99.90;;;;;;5030412;28;20025;-78
2021/08/30 03:24:32;;;;;;;7.97;3.08;;;13.60;99.90;;;;;;5030256;28;20037;-78
2021/08/30 03:26:58;;;;;;;4.55;3.05;;;13.60;99.90;;;;;;5012816;28;20040;-81
2021/08/30 03:29:24;;;;;;;7.40;2.90;;;13.50;99.90;;;;;;5010453;28;20048;-81
2021/08/30 03:31:51;;;;;;;8.80;3.17;;;13.50;99.90;;;;;;5009770;28;20113;-81
2021/08/30 03:34:20;;;;;;;4.32;3.15;;;13.50;99.90;;;;;;5010377;28;20097;-78
2021/08/30 03:36:46;;;;;;;5.78;2.45;;;13.40;99.90;;;;;;5021780;28;20021;-78
2021/08/30 03:39:13;;;;;;;6.03;3.13;;;13.40;99.90;;;;;;5030304;28;20037;-78
2021/08/30 03:41:41;;;;;;;6.43;2.90;;;13.40;99.90;;;;;;5028043;28;20036;-78
2021/08/30 03:44:09;;;;;;;5.75;3.10;;;13.30;99.90;;;;;;5025240;28;20061;-81
2021/08/30 03:46:36;;;;;;;11.00;3.00;;;13.30;99.90;;;;;;5031846;28;20018;-78
2021/08/30 03:49:02;;;;;;;5.90;3.13;;;13.30;99.90;;;;;;5029768;28;20037;-82
2021/08/30 03:51:29;;;;;;;7.75;2.72;;;13.30;99.90;;;;;;5011829;28;20026;-78
2021/08/30 03:53:56;;;;;;;5.45;3.05;;;13.30;99.90;;;;;;5010313;28;20520;-81
2021/08/30 03:56:22;;;;;;;2.60;2.40;;;13.30;99.90;;;;;;5008934;28;20037;-81
2021/08/30 03:58:49;;;;;;;6.80;3.08;;;13.30;99.90;;;;;;5009845;28;20485;-78
2021/08/30 04:01:19;;;;;;;6.55;3.20;;;13.20;99.90;;;;;;5027525;28;20032;-78
2021/08/30 04:03:48;;;;;;;9.20;2.85;;;13.20;99.90;;;;;;5034156;28;20037;-78
2021/08/30 04:06:15;;;;;;;4.63;2.85;;;13.20;99.90;;;;;;5033571;28;20021;-78
2021/08/30 04:08:40;;;;;;;7.28;3.22;;;13.20;99.90;;;;;;5032122;28;20033;-81
2021/08/30 04:11:09;;;;;;;5.57;3.10;;;13.20;99.90;;;;;;5032734;28;20508;-78
2021/08/30 04:13:36;;;;;;;5.28;2.97;;;13.20;99.90;;;;;;5033923;28;20781;-78
2021/08/30 04:16:02;;;;;;;5.22;2.85;;;13.20;99.90;;;;;;5031360;28;20025;-78
2021/08/30 04:18:27;;;;;;;5.05;2.70;;;13.20;99.90;;;;;;5033813;28;20033;-78
2021/08/30 04:20:53;;;;;;;8.25;2.97;;;13.20;99.90;;;;;;5030881;28;20065;-81
2021/08/30 04:23:19;;;;;;;7.60;3.47;;;13.20;99.90;;;;;;5033063;28;20057;-81
2021/08/30 04:25:44;;;;;;;5.63;3.13;;;13.20;99.90;;;;;;5027129;28;20076;-81
2021/08/30 04:28:10;;;;;;;5.55;2.80;;;13.10;99.90;;;;;;5013556;28;20108;-78
2021/08/30 04:30:36;;;;;;;4.95;2.85;;;13.10;99.90;;;;;;5013980;28;20022;-81
2021/08/30 04:33:02;;;;;;;5.97;3.05;;;13.10;99.90;;;;;;5013399;28;20029;-81
2021/08/30 04:35:28;;;;;;;11.77;3.38;;;13.10;99.90;;;;;;5013544;28;20052;-78
2021/08/30 04:37:54;;;;;;;7.30;3.17;;;13.10;99.90;;;;;;5013308;28;20460;-78
2021/08/30 04:40:19;;;;;;;8.68;3.25;;;13.10;99.90;;;;;;5013301;28;20107;-78
2021/08/30 04:42:45;;;;;;;5.45;3.15;;;13.10;99.90;;;;;;5012225;28;20050;-78
2021/08/30 04:45:11;;;;;;;7.82;3.10;;;13.10;99.90;;;;;;5034837;28;20062;-78
2021/08/30 04:47:36;;;;;;;5.43;3.10;;;13.10;99.90;;;;;;5032842;28;20116;-81
2021/08/30 04:50:04;;;;;;;4.68;3.00;;;13.10;99.90;;;;;;5028005;28;20018;-82
2021/08/30 04:52:29;;;;;;;5.57;3.08;;;13.10;99.90;;;;;;5013116;28;20075;-78
2021/08/30 04:54:55;;;;;;;10.05;3.45;;;13.10;99.90;;;;;;5012803;28;20112;-78
2021/08/30 04:57:21;;;;;;;8.05;3.10;;;13.10;99.90;;;;;;5010747;28;20038;-78
2021/08/30 04:59:46;;;;;;;4.18;3.15;;;13.10;99.90;;;;;;5011557;28;20044;-81
2021/08/30 05:02:12;;;;;;;5.07;3.08;;;13.10;99.90;;;;;;5028204;28;20409;-78
2021/08/30 05:04:37;;;;;;;6.05;3.28;;;13.10;99.90;;;;;;5013112;28;20030;-78
2021/08/30 05:07:03;;;;;;;6.60;3.20;;;13.10;99.90;;;;;;5012308;28;20116;-78
2021/08/30 05:09:29;;;;;;;11.45;3.28;;;13.10;99.90;;;;;;5012768;28;20389;-78
2021/08/30 05:11:55;;;;;;;8.40;3.58;;;13.10;99.90;;;;;;5012085;28;20026;-81
2021/08/30 05:14:21;;;;;;;10.90;3.75;;;13.10;99.90;;;;;;5012554;28;20049;-81
2021/08/30 05:16:47;;;;;;;6.65;3.55;;;13.10;99.90;;;;;;5010812;28;20485;-81
2021/08/30 05:19:13;;;;;;;9.50;3.55;;;13.10;99.90;;;;;;5012997;28;20512;-78
2021/08/30 05:21:38;;;;;;;6.55;2.95;;;13.10;99.90;;;;;;5011805;28;20037;-81
2021/08/30 05:24:07;;;;;;;8.20;3.28;;;13.10;99.90;;;;;;5010867;28;20410;-78
2021/08/30 05:26:34;;;;;;;9.13;2.95;;;13.10;99.90;;;;;;5010792;28;20041;-81
2021/08/30 05:28:59;;;;;;;6.30;3.45;;;13.10;99.90;;;;;;5012414;28;20030;-78
2021/08/30 05:31:25;;;;;;;10.65;3.33;;;13.20;99.90;;;;;;5012324;28;20480;-78
2021/08/30 05:33:51;;;;;;;9.07;3.65;;;13.10;99.90;;;;;;5012427;28;20026;-81
2021/08/30 05:36:16;;;;;;;7.78;3.22;;;13.20;99.90;;;;;;5021352;28;20029;-81
2021/08/30 05:38:42;;;;;;;6.15;3.72;;;13.20;99.90;;;;;;5044963;28;20032;-81
2021/08/30 05:41:08;;;;;;;7.90;3.30;;;13.20;99.90;;;;;;5047173;28;20029;-81
2021/08/30 05:43:33;;;;;;;9.40;3.65;;;13.20;99.90;;;;;;5013196;28;20119;-78
2021/08/30 05:45:59;;;;;;;6.43;3.55;;;13.30;99.90;;;;;;5031819;28;20037;-78
2021/08/30 05:48:25;;;;;;;8.35;3.28;;;13.30;99.90;;;;;;5014044;28;20018;-78
2021/08/30 05:50:50;;;;;;;10.38;3.72;;;13.30;99.90;;;;;;5012592;28;20516;-81
2021/08/30 05:53:16;;;;;;;7.43;3.28;;;13.40;99.90;;;;;;5033885;28;20025;-81
2021/08/30 05:55:42;;;;;;;5.63;3.35;;;13.40;99.90;;;;;;5023415;28;20026;-78
2021/08/30 05:58:07;;;;;;;8.68;3.50;;;13.40;99.90;;;;;;5014141;28;20506;-78
2021/08/30 06:00:33;;;;;;;11.93;3.33;;;13.40;99.90;;;;;;5023289;28;20092;-78
2021/08/30 06:02:59;;;;;;;7.53;3.42;;;13.50;99.90;;;;;;5021245;28;20021;-82
2021/08/30 06:05:24;;;;;;;5.85;3.33;;;13.50;99.90;;;;;;5019199;28;20033;-81
2021/08/30 06:07:50;;;;;;;11.10;3.33;;;13.60;99.90;;;;;;5014763;28;20018;-79
2021/08/30 06:10:16;;;;;;;9.38;3.08;;;13.60;99.90;;;;;;5022122;28;20033;-79
2021/08/30 06:12:42;;;;;;;8.68;3.33;;;13.70;99.90;;;;;;5036545;28;20032;-79
2021/08/30 06:15:09;;;;;;;8.57;3.35;;;13.70;99.90;;;;;;5033006;28;20029;-79
2021/08/30 06:17:35;;;;;;;9.60;3.20;;;13.70;99.90;;;;;;5013045;28;20559;-82
2021/08/30 06:20:00;;;;;;;12.15;4.38;;;13.80;99.90;;;;;;5026688;28;20116;-81
2021/08/30 06:22:26;;;;;;;6.90;3.17;;;14.00;99.90;;;;;;5037913;28;20519;-79
2021/08/30 06:24:52;;;;;;;8.07;3.83;;;14.10;99.90;;;;;;5044978;28;20061;-80
2021/08/30 06:27:20;;;;;;;6.97;3.05;;;14.30;99.90;;;;;;5011743;28;20548;-79
2021/08/30 06:29:46;;;;;;;5.88;3.63;;;14.50;99.90;;;;;;5024449;28;20041;-78
2021/08/30 06:32:12;;;;;;;7.35;3.25;;;14.80;99.90;;;;;;5037563;28;20120;-81
2021/08/30 06:34:38;;;;;;;9.02;3.25;;;15.00;99.90;;;;;;5022375;28;20136;-79
2021/08/30 06:37:04;;;;;;;7.63;3.08;;;15.10;99.90;;;;;;5019058;28;20021;-78
2021/08/30 06:39:30;;;;;;;8.50;3.17;;;15.20;99.90;;;;;;5022379;28;20463;-81
2021/08/30 06:41:56;;;;;;;6.07;3.05;;;15.30;99.90;;;;;;5018837;28;20104;-79
2021/08/30 06:44:21;;;;;;;7.20;3.85;;;15.30;99.90;;;;;;5020161;28;20168;-81
2021/08/30 06:46:47;;;;;;;8.52;3.72;;;15.30;99.90;;;;;;5020872;28;20022;-82
2021/08/30 06:49:13;;;;;;;7.40;3.25;;;15.30;99.90;;;;;;5012043;28;20037;-79
2021/08/30 06:51:38;;;;;;;5.57;3.05;;;15.40;99.90;;;;;;5020668;28;20022;-79
2021/08/30 06:54:04;;;;;;;10.20;3.15;;;15.50;99.90;;;;;;5017310;28;20053;-79
2021/08/30 06:56:30;;;;;;;7.57;3.00;;;15.60;99.90;;;;;;5014297;28;20112;-82
2021/08/30 06:58:55;;;;;;;8.18;3.20;;;15.70;99.90;;;;;;5017054;28;20559;-81
2021/08/30 07:01:21;;;;;;;11.13;3.42;;;15.70;99.90;;;;;;5020746;28;20029;-79
2021/08/30 07:03:48;;;;;;;8.48;3.13;;;15.80;99.90;;;;;;5018107;28;20044;-81
2021/08/30 07:06:14;;;;;;;6.60;3.10;;;15.90;99.90;;;;;;5021864;28;20021;-79
2021/08/30 07:08:39;;;;;;;9.43;4.15;;;16.00;99.90;;;;;;5025724;28;20044;-81
2021/08/30 07:11:05;;;;;;;4.15;2.53;;;16.10;99.90;;;;;;5014535;28;20403;-81
2021/08/30 07:13:30;;;;;;;9.73;2.92;;;16.20;99.90;;;;;;5017698;28;20505;-79
2021/08/30 07:15:56;;;;;;;12.32;3.10;;;16.30;99.90;;;;;;5011845;28;20363;-79
2021/08/30 07:18:22;;;;;;;7.22;2.72;;;16.50;99.90;;;;;;5019734;28;20040;-81
2021/08/30 07:20:48;;;;;;;8.95;3.05;;;16.60;99.90;;;;;;5024175;28;20116;-82
2021/08/30 07:23:15;;;;;;;8.88;3.03;;;16.70;99.90;;;;;;5018649;28;20452;-79
2021/08/30 07:25:41;;;;;;;9.45;3.58;;;16.80;99.90;;;;;;5015328;28;20097;-81
2021/08/30 07:28:07;;;;;;;5.63;2.40;;;16.90;99.90;;;;;;5009418;28;20109;-82
2021/08/30 07:30:32;;;;;;;7.72;2.90;;;17.10;99.90;;;;;;5018158;28;20038;-79
2021/08/30 07:32:58;;;;;;;9.75;2.83;;;17.20;99.90;;;;;;5014557;28;20036;-79
2021/08/30 07:35:24;;;;;;;11.00;2.60;;;17.30;99.90;;;;;;5013943;28;20036;-81
2021/08/30 07:37:49;;;;;;;11.05;3.72;;;17.40;99.90;;;;;;5028391;28;20029;-80
2021/08/30 07:40:15;;;;;;;7.57;3.03;;;17.50;99.90;;;;;;5031763;28;20025;-79
2021/08/30 07:42:41;;;;;;;14.82;2.88;;;17.60;99.90;;;;;;5026767;28;20049;-80
2021/08/30 07:45:07;;;;;;;7.32;3.00;;;17.80;99.90;;;;;;5042051;28;20116;-79
2021/08/30 07:47:34;;;;;;;6.25;2.78;;;17.90;99.90;;;;;;5029548;28;20029;-81
2021/08/30 07:50:00;;;;;;;13.77;2.80;;;17.90;99.90;;;;;;5019947;28;20403;-82
2021/08/30 07:52:25;;;;;;;7.93;2.80;;;18.00;99.90;;;;;;5030077;28;20033;-79
2021/08/30 07:54:52;;;;;;;7.45;3.03;;;18.10;99.90;;;;;;5026390;28;20037;-79
2021/08/30 07:57:18;;;;;;;9.23;3.00;;;18.30;99.90;;;;;;5023841;28;20404;-79
2021/08/30 07:59:44;;;;;;;8.43;2.70;;;18.60;99.90;;;;;;5013647;28;20032;-79
2021/08/30 08:02:09;;;;;;;10.30;2.90;;;19.90;99.90;;;;;;5026170;28;20022;-79
2021/08/30 08:04:35;;;;;;;6.25;2.58;;;22.30;96.30;;;;;;5034920;28;20028;-82
2021/08/30 08:07:01;;;;;;;7.38;2.40;;;23.90;92.80;;;;;;5027070;28;20025;-79
2021/08/30 08:09:26;;;;;;;7.00;2.47;;;24.60;91.20;;;;;;5017952;28;20030;-79
2021/08/30 08:11:52;;;;;;;6.47;2.50;;;25.50;89.20;;;;;;5019934;28;20076;-80
2021/08/30 08:14:17;;;;;;;7.45;3.05;;;26.10;86.10;;;;;;5023489;28;20477;-81
2021/08/30 08:16:43;;;;;;;5.25;2.58;;;26.30;84.80;;;;;;5034638;28;20021;-81
2021/08/30 08:19:09;;;;;;;3.92;2.47;;;26.60;83.40;;;;;;5034922;28;20041;-81
2021/08/30 08:21:35;;;;;;;7.57;3.15;;;26.80;82.50;;;;;;5014390;28;20040;-79
2021/08/30 08:24:03;;;;;;;8.18;2.80;;;27.60;81.40;;;;;;5026275;28;20028;-79
2021/08/30 08:26:29;;;;;;;4.35;2.63;;;27.80;79.60;;;;;;5020424;28;20488;-80
2021/08/30 08:28:54;;;;;;;6.32;2.88;;;27.60;79.50;;;;;;5029555;28;20348;-80
2021/08/30 08:31:21;;;;;;;7.95;2.92;;;28.00;78.20;;;;;;5017873;28;20038;-80
2021/08/30 08:33:48;;;;;;;7.28;2.80;;;28.10;77.90;;;;;;5029871;28;20021;-80
2021/08/30 08:36:16;;;;;;;10.18;2.85;;;28.50;77.30;;;;;;5022769;28;20029;-78
2021/08/30 08:38:42;;;;;;;6.75;2.40;;;28.00;77.40;;;;;;5021525;28;20033;-79
2021/08/30 08:41:07;;;;;;;4.75;2.45;;;28.30;76.90;;;;;;5028485;28;20061;-80
2021/08/30 08:43:34;;;;;;;7.13;2.83;;;28.90;75.90;;;;;;5018814;28;20080;-80
2021/08/30 08:46:00;;;;;;;4.68;2.70;;;29.70;75.30;;;;;;5037282;28;20052;-78
2021/08/30 08:48:26;;;;;;;3.67;2.55;;;29.70;74.10;;;;;;5018477;28;20109;-79
2021/08/30 08:50:52;;;;;;;7.90;2.92;;;29.20;73.90;;;;;;5028507;28;20103;-79
2021/08/30 08:53:18;;;;;;;6.72;2.85;;;29.40;73.70;;;;;;5025971;28;20534;-78
2021/08/30 08:55:44;;;;;;;3.65;2.70;;;29.50;73.40;;;;;;5012029;28;20112;-80
2021/08/30 08:58:12;;;;;;;5.45;2.70;;;29.70;72.70;;;;;;5025158;28;20388;-79
2021/08/30 09:00:40;;;;;;;6.78;2.53;;;29.50;72.10;;;;;;5030644;28;20659;-79
2021/08/30 09:03:16;;;;;;;7.00;2.90;;;29.50;73.20;;;;;;5019037;28;20038;-79
2021/08/30 09:05:42;;;;;;;8.68;3.53;;;29.70;72.20;;;;;;5017106;28;20252;-81
2021/08/30 09:08:28;;;;;;;5.03;2.83;;;30.50;71.50;;;;;;5022224;28;20113;-81
2021/08/30 09:10:54;;;;;;;9.13;3.08;;;30.70;70.80;;;;;;5010855;28;20038;-79
2021/08/30 09:13:31;;;;;;;11.15;2.95;;;30.30;71.00;;;;;;5025935;28;20404;-80
2021/08/30 09:15:58;;;;;;;4.93;2.80;;;30.20;70.80;;;;;;5025789;28;20044;-81
2021/08/30 09:18:31;;;;;;;5.47;2.97;;;30.60;70.30;;;;;;5018246;28;20034;-79
2021/08/30 09:21:09;;;;;;;5.10;3.00;;;30.70;70.00;;;;;;5030146;28;20362;-81
2021/08/30 09:23:39;;;;;;;7.20;3.20;;;30.20;69.80;;;;;;5019710;28;20022;-79
2021/08/30 09:26:05;;;;;;;7.07;2.92;;;30.70;69.50;;;;;;5014319;28;20144;-79
2021/08/30 09:28:33;;;;;;;5.72;2.60;;;31.10;69.40;;;;;;5019069;28;20524;-80
2021/08/30 09:31:00;;;;;;;5.53;2.78;;;30.80;69.90;;;;;;5030443;28;20116;-81
2021/08/30 09:33:25;;;;;;;9.50;2.90;;;30.90;70.00;;;;;;5022466;28;20021;-80
2021/08/30 09:35:59;;;;;;;6.30;3.30;;;30.80;69.30;;;;;;5012001;28;20400;-81
2021/08/30 09:38:27;;;;;;;8.95;2.97;;;30.80;69.00;;;;;;5020067;28;20032;-80
2021/08/30 09:41:04;;;;;;;7.75;2.92;;;30.80;68.80;;;;;;5018129;28;20381;-81
2021/08/30 09:43:29;;;;;;;5.50;3.05;;;30.90;68.70;;;;;;5028632;28;20057;-80
2021/08/30 09:46:00;;;;;;;3.83;2.60;;;31.20;68.00;;;;;;5032202;28;20037;-80
2021/08/30 09:48:26;;;;;;;7.07;2.60;;;31.20;67.90;;;;;;5020184;28;20036;-81
2021/08/30 09:50:57;;;;;;;2.95;2.65;;;31.20;68.50;;;;;;5021796;28;20033;-79
2021/08/30 09:53:22;;;;;;;5.47;2.70;;;31.00;68.00;;;;;;5012267;28;20582;-79
2021/08/30 09:55:48;;;;;;;5.05;2.80;;;30.70;68.60;;;;;;5010542;28;20037;-79
2021/08/30 09:58:17;;;;;;;7.32;2.70;;;30.30;68.60;;;;;;5016584;28;20033;-81
2021/08/30 10:00:44;;;;;;;4.97;2.50;;;30.10;68.80;;;;;;5016484;28;20041;-81
2021/08/30 10:03:11;;;;;;;6.63;2.40;;;28.00;71.30;;;;;;5022917;28;20041;-78
2021/08/30 10:05:38;;;;;;;3.03;2.20;;;28.40;71.10;;;;;;5019982;28;20029;-79
2021/08/30 10:08:04;;;;;;;6.32;2.42;;;28.90;71.30;;;;;;5018043;28;20397;-80
2021/08/30 10:10:30;;;;;;;5.45;2.40;;;28.60;70.60;;;;;;5019100;28;20030;-81
2021/08/30 10:12:56;;;;;;;5.43;2.75;;;28.50;72.20;;;;;;5024733;28;20018;-81
2021/08/30 10:15:25;;;;;;;4.82;2.38;;;28.80;71.60;;;;;;5021210;28;20025;-81
2021/08/30 10:17:51;;;;;;;6.10;2.50;;;29.10;70.90;;;;;;5019703;28;20021;-79
2021/08/30 10:20:19;;;;;;;4.53;2.40;;;28.20;72.40;;;;;;5017009;28;20026;-82
2021/08/30 10:23:06;;;;;;;7.25;2.35;;;27.40;73.50;;;;;;5023393;28;20091;-79
2021/08/30 10:25:34;;;;;;;6.57;2.50;;;27.50;74.20;;;;;;5030002;28;20030;-80
2021/08/30 10:28:03;;;;;;;3.90;2.15;;;27.80;73.30;;;;;;5028462;28;20071;-79
2021/08/30 10:30:32;;;;;;;11.00;2.38;;;28.50;71.60;;;;;;5023641;28;20439;-79
2021/08/30 10:33:00;;;;;;;6.32;2.22;;;28.90;71.30;;;;;;5020025;28;20100;-81
2021/08/30 10:35:30;;;;;;;5.05;2.13;;;30.00;69.70;;;;;;5020644;28;20045;-81
2021/08/30 10:38:02;;;;;;;6.05;2.05;;;30.50;68.40;;;;;;5016172;28;20081;-81
2021/08/30 10:40:35;;;;;;;;;;;30.00;69.20;;;;;;5019427;28;20476;-80
2021/08/30 10:43:05;;;;;;;2.80;2.00;;;29.90;69.20;;;;;;5020250;28;20335;-79
2021/08/30 10:45:39;;;;;;;3.00;1.85;;;30.30;69.30;;;;;;5028906;28;20069;-79
2021/08/30 10:48:16;;;;;;;3.58;1.70;;;29.20;69.20;;;;;;5009395;28;20111;-80
2021/08/30 10:50:48;;;;;;;4.57;1.90;;;27.90;71.40;;;;;;5014096;28;20477;-79
2021/08/30 10:53:23;;;;;;;2.92;1.90;;;27.80;72.90;;;;;;5018933;28;20032;-79
2021/08/30 10:55:53;;;;;;;5.25;1.70;;;28.40;72.90;;;;;;5015045;28;20535;-79
2021/08/30 10:58:25;;;;;;;4.35;1.60;;;28.60;71.20;;;;;;5017377;28;20097;-79
2021/08/30 11:00:52;;;;;;;3.83;1.90;;;28.40;71.50;;;;;;5017190;28;20033;-79
2021/08/30 11:03:29;;;;;;;3.65;1.70;;;28.60;71.70;;;;;;5016210;28;20025;-79
2021/08/30 11:06:06;;;;;;;5.10;2.20;;;28.80;71.50;;;;;;5016399;28;20030;-82
2021/08/30 11:08:33;;;;;;;1.95;1.67;;;28.40;71.40;;;;;;5015834;28;20045;-80
2021/08/30 11:11:15;;;;;;;2.30;2.10;;;28.60;71.30;;;;;;5019996;28;20067;-79
2021/08/30 11:13:43;;;;;;;3.70;1.55;;;27.70;72.40;;;;;;5017631;28;20022;-79
2021/08/30 11:16:23;;;;;;;1.83;1.33;;;27.40;73.40;;;;;;5019382;28;20038;-82
2021/08/30 11:18:58;;;;;;;2.33;1.60;;;27.50;72.80;;;;;;5017629;28;20029;-81
2021/08/30 11:21:50;;;;;;;5.00;1.60;;;27.30;73.90;;;;;;5015728;28;20029;-82
2021/08/30 11:24:45;;;;;;;3.85;1.60;;;27.10;74.90;;;;;;5017393;28;20079;-79
2021/08/30 11:27:12;;;;;;;6.78;1.58;;;26.60;75.30;;;;;;5018776;28;20496;-79
2021/08/30 11:29:44;;;;;;;4.82;1.73;;;26.30;76.40;;;;;;5020849;28;20488;-81
2021/08/30 11:32:10;;;;;;;2.90;1.27;;;26.20;76.30;;;;;;5024437;28;20105;-81
2021/08/30 11:34:38;;;;;;;3.17;1.25;;;25.60;77.10;;;;;;5011157;28;20536;-78
2021/08/30 11:37:06;;;;;;;2.00;1.45;;;25.50;78.00;;;;;;5018899;28;20112;-78
2021/08/30 11:39:35;;;;;;;2.47;1.42;;;25.30;78.80;;;;;;5010673;28;20112;-79
2021/08/30 11:42:13;;;;;;;2.97;1.20;;;25.90;78.20;;;;;;5024287;28;20022;-83
2021/08/30 11:44:40;;;;;;;4.00;1.63;;;25.90;78.10;;;;;;5029144;28;20053;-82
2021/08/30 11:47:11;;;;;;;2.33;1.13;;;26.40;77.00;;;;;;5015833;28;20503;-81
2021/08/30 11:49:40;;;;;;;2.25;1.23;;;26.70;76.90;;;;;;5020889;28;20397;-81
2021/08/30 11:52:07;;;;;;;2.58;1.17;;;26.30;76.80;;;;;;5008802;28;20021;-81
2021/08/30 11:54:35;;;;;;;2.63;1.15;;;25.80;78.50;;;;;;5023525;28;20100;-81
2021/08/30 11:57:08;;;;;;;2.35;1.10;;;25.50;79.40;;;;;;5010285;28;20029;-81
2021/08/30 11:59:33;;;;;;;;;;;25.50;79.70;;;;;;5018630;28;20574;-81
2021/08/30 12:02:00;;;;;;;1.45;0.80;;;25.30;79.70;;;;;;5018573;28;19910;-81
2021/08/30 12:04:32;;;;;;;3.00;0.90;;;25.20;80.10;;;;;;5025350;28;20026;-81
2021/08/30 12:07:00;;;;;;;4.15;0.90;;;25.10;80.30;;;;;;5015530;28;20032;-79
2021/08/30 12:09:44;;;;;;;6.70;1.20;;;24.50;81.50;;;;;;5025457;28;20033;-85
2021/08/30 12:12:25;;;;;;;2.20;0.90;;;24.40;82.50;;;;;;5017689;28;20021;-86
2021/08/30 12:15:03;;;;;;;0.52;0.50;;;24.50;82.70;;;;;;5027913;28;20494;-80
2021/08/30 12:17:34;;;;;;;4.50;1.10;;;24.20;82.60;;;;;;5028021;28;20026;-81
2021/08/30 12:20:07;;;;;;;1.80;0.90;;;24.40;82.70;;;;;;5029193;28;20364;-83
2021/08/30 12:22:36;;;;;;;1.00;0.90;;;24.80;82.00;;;;;;5034476;28;20018;-82
2021/08/30 12:25:04;;;;;;;1.10;0.68;;;25.00;81.50;;;;;;5017050;28;20073;-82
2021/08/30 12:27:37;;;;;;;1.00;0.70;;;25.30;80.50;;;;;;5028859;28;20025;-80
2021/08/30 12:30:14;;;;;;;2.05;0.90;;;25.30;80.50;;;;;;5012962;28;20029;-82
2021/08/30 12:32:46;;;;;;;3.65;1.00;;;24.90;81.50;;;;;;5021698;28;20149;-80
2021/08/30 12:35:16;;;;;;;1.40;1.10;;;24.90;81.70;;;;;;5025564;28;20048;-81
2021/08/30 12:37:42;;;;;;;3.50;1.17;;;25.00;82.10;;;;;;5013431;28;20036;-81
2021/08/30 12:40:08;;;;;;;3.22;1.08;;;25.00;81.80;;;;;;5020405;28;20101;-80
2021/08/30 12:42:34;;;;;;;2.63;1.05;;;25.00;81.90;;;;;;5024444;28;20045;-80
2021/08/30 12:45:00;;;;;;;2.22;1.05;;;25.00;81.50;;;;;;5025014;28;20056;-80
2021/08/30 12:47:25;;;;;;;1.95;0.98;;;25.30;80.20;;;;;;5032449;28;20420;-80
2021/08/30 12:49:51;;;;;;;3.33;1.15;;;26.00;79.40;;;;;;5024464;28;20060;-81
2021/08/30 12:52:16;;;;;;;2.95;1.00;;;26.10;78.60;;;;;;5034397;28;20079;-79